Time;durP1;ratioP1;P1;durP2;ratioP2;P2;SDS_P1;SDS_P2;PMS_P1;PMS_P2;Temp;Humidity;BMP_temperature;BMP_pressure;BME280_temperature;BME280_humidity;BME280_pressure;Samples;Min_cycle;Max_cycle;Signal;HPM_P1;HPM_P2
2021/12/31 00:00:13;;;;;;;5.25;2.58;;;;;;;14.42;78.21;101576.38;3580318;40;20060;-63
2021/12/31 00:02:39;;;;;;;3.65;2.30;;;;;;;14.44;78.00;101582.56;3581672;40;20056;-63
2021/12/31 00:05:08;;;;;;;6.78;2.97;;;;;;;14.46;77.92;101594.16;3580904;40;20128;-63
2021/12/31 00:07:33;;;;;;;7.40;2.40;;;;;;;14.38;77.71;101572.16;3581075;40;20064;-63
2021/12/31 00:10:00;;;;;;;5.80;2.20;;;;;;;14.43;77.30;101578.13;3580132;40;20048;-64
2021/12/31 00:12:31;;;;;;;7.20;2.42;;;;;;;14.13;77.23;101529.63;3580752;40;20065;-64
2021/12/31 00:14:58;;;;;;;6.78;2.50;;;;;;;14.43;76.88;101578.13;3582025;40;20091;-63
2021/12/31 00:17:24;;;;;;;7.13;2.40;;;;;;;14.46;77.07;101586.06;3581074;40;20068;-63
2021/12/31 00:20:00;;;;;;;5.38;2.75;;;;;;;14.18;77.59;101551.84;3580315;40;20064;-64
2021/12/31 00:24:55;;;;;;;32.20;20.38;;;;;;;14.46;77.37;101601.38;3578834;40;20049;-62
2021/12/31 00:27:20;;;;;;;10.70;4.00;;;;;;;14.47;76.80;101598.59;3581627;40;20066;-63
2021/12/31 00:29:46;;;;;;;6.05;2.40;;;;;;;14.41;76.67;101585.47;3585137;40;20060;-63
2021/12/31 00:32:12;;;;;;;6.45;2.30;;;;;;;14.43;76.85;101591.66;3581357;40;20068;-63
2021/12/31 00:34:38;;;;;;;4.80;2.35;;;;;;;14.44;76.58;101587.97;3581666;40;20078;-63
2021/12/31 00:37:03;;;;;;;8.88;2.65;;;;;;;14.42;76.27;101586.34;3583064;40;20064;-62
2021/12/31 00:39:29;;;;;;;7.85;2.83;;;;;;;14.49;76.23;101602.06;3583774;40;20072;-63
2021/12/31 00:41:54;;;;;;;5.60;2.78;;;;;;;14.45;75.98;101592.41;3584164;40;20061;-63
2021/12/31 00:44:20;;;;;;;4.55;2.25;;;;;;;14.52;76.36;101606.44;3583822;40;20056;-63
2021/12/31 00:46:47;;;;;;;5.43;2.33;;;;;;;14.52;76.13;101599.19;3584616;40;20159;-62
2021/12/31 00:49:13;;;;;;;7.13;2.72;;;;;;;14.53;75.70;101592.81;3584433;40;20054;-63
2021/12/31 00:51:39;;;;;;;6.38;2.30;;;;;;;14.53;75.44;101600.94;3581210;40;20360;-63
2021/12/31 00:54:05;;;;;;;7.35;2.55;;;;;;;14.52;75.45;101591.06;3585071;40;20389;-63
2021/12/31 00:56:31;;;;;;;3.78;2.00;;;;;;;14.34;75.92;101573.34;3584198;40;20045;-63
2021/12/31 00:58:56;;;;;;;7.35;2.35;;;;;;;14.47;75.64;101595.03;3583698;40;20299;-63
2021/12/31 01:01:24;;;;;;;7.50;2.58;;;;;;;14.48;75.30;101603.03;3581569;40;20060;-63
2021/12/31 01:03:50;;;;;;;4.45;2.15;;;;;;;14.50;75.37;101600.25;3583312;40;20048;-63
2021/12/31 01:06:16;;;;;;;5.53;2.15;;;;;;;14.26;75.74;101570.25;3578515;40;20063;-63
2021/12/31 01:08:42;;;;;;;6.40;2.70;;;;;;;14.47;75.70;101606.72;3579418;40;20383;-62
2021/12/31 01:11:10;;;;;;;4.32;2.05;;;;;;;14.46;75.67;101605.00;3581955;40;20048;-63
2021/12/31 01:14:00;;;;;;;4.57;2.22;;;;;;;14.48;75.60;101597.63;3586243;40;20146;-63
2021/12/31 01:16:35;;;;;;;5.70;2.50;;;;;;;14.53;75.72;101598.22;3579723;40;20061;-63
2021/12/31 01:21:33;;;;;;;6.93;2.13;;;;;;;14.55;75.13;101593.56;3580986;40;20084;-63
2021/12/31 01:24:01;;;;;;;7.70;2.08;;;;;;;14.50;74.95;101590.28;3584294;40;20056;-63
2021/12/31 01:26:27;;;;;;;6.80;2.30;;;;;;;14.51;74.90;101578.50;3580049;40;20074;-63
2021/12/31 01:28:53;;;;;;;4.03;2.58;;;;;;;14.48;74.80;101581.38;3580330;40;20387;-63
2021/12/31 01:31:21;;;;;;;5.22;2.30;;;;;;;14.47;75.14;101590.47;3577915;40;20056;-63
2021/12/31 01:33:47;;;;;;;3.42;2.03;;;;;;;14.31;75.28;101557.31;3582654;40;20442;-64
2021/12/31 01:36:12;;;;;;;4.95;1.92;;;;;;;14.51;74.65;101588.47;3580484;40;20060;-63
2021/12/31 01:38:38;;;;;;;5.03;2.40;;;;;;;14.51;75.02;101583.94;3583013;40;20056;-63
2021/12/31 01:41:04;;;;;;;3.72;1.70;;;;;;;14.50;74.60;101594.84;3582089;40;20086;-63
2021/12/31 01:43:30;;;;;;;4.18;2.17;;;;;;;14.51;74.54;101597.44;3581608;40;20418;-63
2021/12/31 01:46:00;;;;;;;4.53;2.17;;;;;;;14.38;74.70;101575.72;3582165;40;20054;-63
2021/12/31 01:48:36;;;;;;;5.80;2.30;;;;;;;14.54;74.23;101599.97;3580833;40;20057;-63
2021/12/31 01:51:03;;;;;;;5.28;2.00;;;;;;;14.61;74.30;101601.28;3582373;40;20060;-63
2021/12/31 01:53:31;;;;;;;7.22;2.47;;;;;;;14.59;74.06;101600.53;3582046;40;20053;-63
2021/12/31 01:56:00;;;;;;;4.38;2.13;;;;;;;14.56;74.21;101598.03;3581576;40;20060;-63
2021/12/31 01:58:27;;;;;;;5.10;2.30;;;;;;;14.57;74.33;101599.75;3580885;40;20074;-63
2021/12/31 02:00:54;;;;;;;5.32;2.15;;;;;;;14.60;74.23;101609.50;3582252;40;20048;-63
2021/12/31 02:03:23;;;;;;;4.40;1.63;;;;;;;14.59;74.15;101611.34;3580961;40;20352;-63
2021/12/31 02:05:49;;;;;;;4.25;2.00;;;;;;;14.54;74.06;101596.38;3577268;40;20418;-63
2021/12/31 02:08:16;;;;;;;6.05;2.28;;;;;;;14.59;74.06;101611.34;3580310;40;20057;-63
2021/12/31 02:10:42;;;;;;;3.75;1.95;;;;;;;14.48;73.66;101596.75;3582002;40;20055;-63
2021/12/31 02:13:14;;;;;;;4.35;2.08;;;;;;;14.57;73.56;101613.28;3574327;40;20162;-65
2021/12/31 02:15:40;;;;;;;5.95;2.20;;;;;;;14.56;74.00;101608.84;3579415;40;20571;-63
2021/12/31 02:18:09;;;;;;;3.80;1.92;;;;;;;14.58;74.19;101604.19;3583650;40;20064;-62
2021/12/31 02:20:46;;;;;;;4.57;2.00;;;;;;;14.54;73.56;101608.06;3581945;40;20383;-63
2021/12/31 02:23:20;;;;;;;3.72;2.17;;;;;;;14.58;73.83;101603.31;3579342;40;20161;-63
2021/12/31 02:25:46;;;;;;;;;;;;;;;14.57;73.88;101605.16;3580454;40;20060;-63
2021/12/31 02:28:12;;;;;;;7.18;2.42;;;;;;;14.49;73.67;101593.94;3621367;22;19944;-65
2021/12/31 02:30:38;;;;;;;5.82;2.35;;;;;;;14.57;73.68;101597.06;3598528;39;20047;-62
2021/12/31 02:33:04;;;;;;;5.70;2.13;;;;;;;14.43;73.60;101578.13;3591506;39;20047;-61
2021/12/31 02:35:35;;;;;;;3.38;2.20;;;;;;;14.26;73.78;101548.63;3599537;39;20454;-62
2021/12/31 02:38:05;;;;;;;3.33;2.30;;;;;;;14.50;73.89;101590.28;3589939;39;20384;-62
2021/12/31 02:40:32;;;;;;;6.22;2.20;;;;;;;14.46;73.91;101577.94;3594564;39;20149;-62
2021/12/31 02:42:58;;;;;;;8.95;2.22;;;;;;;14.55;73.18;101592.69;3594964;39;20058;-61
2021/12/31 02:45:31;;;;;;;6.03;2.25;;;;;;;14.56;73.52;101594.47;3589629;39;20052;-62
2021/12/31 02:48:02;;;;;;;7.22;2.08;;;;;;;14.48;73.80;101584.09;3596255;39;20132;-61
2021/12/31 02:50:34;;;;;;;7.32;2.30;;;;;;;14.51;73.79;101591.19;3599756;39;20555;-66
2021/12/31 02:53:07;;;;;;;6.25;2.30;;;;;;;14.47;73.46;101585.06;3594572;39;20080;-61
2021/12/31 02:55:37;;;;;;;4.88;2.00;;;;;;;14.49;73.31;101593.06;3596913;39;20063;-62
2021/12/31 02:58:06;;;;;;;7.10;2.15;;;;;;;14.48;73.63;101585.94;3592800;39;20060;-62
2021/12/31 03:00:37;;;;;;;4.88;1.73;;;;;;;14.44;73.40;101577.16;3591291;39;20310;-62
2021/12/31 03:03:07;;;;;;;3.63;1.98;;;;;;;14.47;73.45;101585.06;3592067;39;20048;-61
2021/12/31 03:05:38;;;;;;;7.18;2.40;;;;;;;14.33;73.88;101563.47;3593329;39;20048;-64
2021/12/31 03:08:10;;;;;;;6.97;2.13;;;;;;;14.37;74.12;101578.53;3595974;39;20076;-61
2021/12/31 03:10:37;;;;;;;5.47;2.13;;;;;;;14.27;74.06;101571.97;3591126;39;20087;-62
2021/12/31 03:13:06;;;;;;;4.13;2.40;;;;;;;13.99;73.59;101519.72;3588667;40;20048;-62
2021/12/31 03:15:32;;;;;;;4.05;2.05;;;;;;;14.36;74.22;101582.19;3589075;39;20060;-62
2021/12/31 03:18:02;;;;;;;4.65;2.00;;;;;;;14.36;73.80;101576.78;3593368;39;20055;-62
2021/12/31 03:20:36;;;;;;;6.93;2.28;;;;;;;14.31;74.46;101573.53;3588073;39;20056;-61
2021/12/31 03:23:04;;;;;;;7.32;2.10;;;;;;;14.30;74.16;101577.19;3590487;39;20150;-61
2021/12/31 03:25:30;;;;;;;4.10;2.50;;;;;;;14.26;74.52;101571.13;3588114;39;20054;-62
2021/12/31 03:27:56;;;;;;;4.80;2.42;;;;;;;14.15;74.44;101554.75;3591973;39;20307;-62
2021/12/31 03:30:21;;;;;;;7.18;2.33;;;;;;;14.22;74.19;101568.72;3587799;39;20126;-62
2021/12/31 03:32:47;;;;;;;4.15;2.08;;;;;;;14.00;74.55;101526.84;3592307;39;20079;-62
2021/12/31 03:35:12;;;;;;;7.22;2.53;;;;;;;14.23;74.30;101570.44;3586612;39;20048;-62
2021/12/31 03:37:38;;;;;;;5.78;2.08;;;;;;;14.27;74.54;101572.88;3592559;39;20374;-62
2021/12/31 03:40:05;;;;;;;6.00;2.38;;;;;;;14.04;74.29;101532.94;3589426;39;20434;-60
2021/12/31 03:42:31;;;;;;;5.45;2.22;;;;;;;14.21;74.03;101557.03;3591187;39;20060;-62
2021/12/31 03:44:58;;;;;;;5.93;2.38;;;;;;;14.21;74.27;101557.03;3592119;39;20047;-62
2021/12/31 03:47:24;;;;;;;7.10;2.42;;;;;;;14.04;74.32;101527.53;3594914;39;20059;-62
2021/12/31 03:49:49;;;;;;;5.85;2.50;;;;;;;14.10;74.67;101544.19;3592371;39;20056;-62
2021/12/31 03:52:15;;;;;;;5.90;2.35;;;;;;;14.17;73.87;101550.06;3590627;39;20462;-62
2021/12/31 03:54:41;;;;;;;6.28;2.33;;;;;;;14.09;74.49;101537.06;3588466;39;20485;-62
2021/12/31 03:57:06;;;;;;;4.88;2.33;;;;;;;14.15;74.53;101555.59;3587754;39;20055;-62
2021/12/31 03:59:32;;;;;;;4.75;2.47;;;;;;;14.16;74.18;101548.34;3590836;39;20068;-61
2021/12/31 04:01:57;;;;;;;8.25;2.58;;;;;;;14.16;74.15;101551.91;3598225;39;20143;-62
2021/12/31 04:04:23;;;;;;;5.15;2.65;;;;;;;14.19;74.38;101558.09;3591963;39;20063;-61
2021/12/31 04:06:49;;;;;;;5.40;2.45;;;;;;;14.16;74.59;101554.63;3597503;39;20127;-62
2021/12/31 04:09:14;;;;;;;6.35;2.40;;;;;;;14.15;75.03;101558.31;3589656;39;20052;-61
2021/12/31 04:11:40;;;;;;;6.82;2.38;;;;;;;13.89;74.56;101505.03;3602246;39;20635;-62
2021/12/31 04:14:05;;;;;;;6.07;2.40;;;;;;;14.15;74.08;101550.19;3596662;39;20322;-62
2021/12/31 04:16:32;;;;;;;6.35;2.28;;;;;;;14.11;74.43;101542.38;3599249;39;20062;-63
2021/12/31 04:18:57;;;;;;;6.25;2.42;;;;;;;14.19;74.49;101558.97;3598332;39;20394;-62
2021/12/31 04:21:24;;;;;;;6.80;2.60;;;;;;;14.22;74.35;101563.31;3591981;39;20063;-61
2021/12/31 04:24:06;;;;;;;6.72;2.30;;;;;;;13.75;74.27;101475.38;3596479;39;20043;-61
2021/12/31 04:26:32;;;;;;;8.38;2.70;;;;;;;14.31;74.30;101562.72;3594143;39;20610;-62
2021/12/31 04:28:58;;;;;;;5.05;2.30;;;;;;;14.29;73.82;101564.63;3600005;39;20058;-62
2021/12/31 04:31:23;;;;;;;5.88;2.40;;;;;;;14.16;74.33;101543.81;3596035;39;20051;-61
2021/12/31 04:33:49;;;;;;;7.85;2.95;;;;;;;14.27;74.18;101555.75;3593138;39;20046;-63
2021/12/31 04:36:15;;;;;;;8.95;2.90;;;;;;;14.22;74.66;101547.09;3592082;39;20077;-61
2021/12/31 04:38:41;;;;;;;5.25;2.35;;;;;;;13.93;74.16;101483.16;3593851;39;20067;-61
2021/12/31 04:41:06;;;;;;;5.03;2.17;;;;;;;14.29;74.40;101548.41;3589394;39;20054;-62
2021/12/31 04:43:32;;;;;;;6.57;2.42;;;;;;;14.22;73.70;101538.97;3592851;39;20056;-62
2021/12/31 04:45:58;;;;;;;5.78;2.58;;;;;;;14.22;74.46;101541.69;3593579;39;20060;-62
2021/12/31 04:48:23;;;;;;;4.57;2.67;;;;;;;14.20;73.76;101532.78;3592483;39;20072;-62
2021/12/31 04:50:49;;;;;;;5.53;2.47;;;;;;;14.22;74.38;101537.13;3591935;39;20339;-64
2021/12/31 04:53:15;;;;;;;7.95;2.75;;;;;;;14.25;73.59;101527.97;3591613;39;20044;-65
2021/12/31 04:55:41;;;;;;;5.50;2.90;;;;;;;14.21;73.80;101524.59;3589916;39;20386;-62
2021/12/31 04:58:07;;;;;;;8.25;3.00;;;;;;;14.23;73.47;101541.56;3595371;39;20051;-62
2021/12/31 05:00:33;;;;;;;5.15;2.38;;;;;;;14.11;73.42;101513.53;3591752;39;20060;-62
2021/12/31 05:03:07;;;;;;;8.00;2.90;;;;;;;14.24;73.16;101534.31;3599164;39;20063;-64
2021/12/31 05:05:32;;;;;;;4.95;2.55;;;;;;;14.21;73.71;101534.50;3594887;39;20050;-62
2021/12/31 05:07:58;;;;;;;8.05;2.72;;;;;;;14.17;73.45;101529.31;3591664;39;20052;-62
2021/12/31 05:10:23;;;;;;;7.97;2.50;;;;;;;14.15;73.55;101530.41;3591521;39;20071;-61
2021/12/31 05:12:53;;;;;;;5.53;2.60;;;;;;;14.20;73.34;101543.59;3590083;39;20060;-61
2021/12/31 05:15:25;;;;;;;7.65;2.60;;;;;;;14.03;73.46;101531.19;3597947;39;20390;-61
2021/12/31 05:17:51;;;;;;;5.78;2.15;;;;;;;14.10;73.68;101535.22;3593260;39;20056;-62
2021/12/31 05:20:17;;;;;;;7.10;2.33;;;;;;;14.08;73.17;101529.94;3597939;39;20058;-62
2021/12/31 05:22:42;;;;;;;4.38;2.60;;;;;;;14.09;73.35;101528.97;3592715;39;20158;-61
2021/12/31 05:25:09;;;;;;;5.72;2.17;;;;;;;14.11;73.37;101532.44;3596834;39;20062;-61
2021/12/31 05:27:34;;;;;;;7.43;2.60;;;;;;;14.06;74.07;101528.31;3597275;39;20139;-63
2021/12/31 05:30:00;;;;;;;6.55;2.60;;;;;;;13.57;73.61;101447.69;3594701;39;20052;-61
2021/12/31 05:32:25;;;;;;;4.93;2.58;;;;;;;14.01;73.86;101517.78;3594252;39;20052;-62
2021/12/31 05:34:51;;;;;;;4.82;2.40;;;;;;;14.01;74.11;101517.78;3593137;39;20052;-62
2021/12/31 05:37:17;;;;;;;5.80;2.53;;;;;;;13.92;74.01;101507.56;3596999;39;20367;-64
2021/12/31 05:39:44;;;;;;;7.57;2.90;;;;;;;13.87;73.63;101498.91;3598440;39;20055;-62
2021/12/31 05:42:11;;;;;;;8.05;2.92;;;;;;;13.83;74.21;101513.59;3590553;39;20123;-61
2021/12/31 05:44:36;;;;;;;7.43;2.97;;;;;;;13.81;73.55;101504.69;3597473;39;20054;-62
2021/12/31 05:47:02;;;;;;;7.72;2.80;;;;;;;13.71;74.05;101488.22;3597126;39;20047;-63
2021/12/31 05:49:29;;;;;;;7.22;2.63;;;;;;;13.77;73.68;101493.22;3597787;39;20055;-63
2021/12/31 05:51:54;;;;;;;6.93;2.53;;;;;;;13.70;73.69;101490.03;3582982;39;20131;-66
2021/12/31 05:54:20;;;;;;;5.88;2.50;;;;;;;13.47;74.26;101458.22;3593263;39;20068;-63
2021/12/31 05:56:46;;;;;;;4.80;2.38;;;;;;;13.61;74.81;101484.38;3592482;40;20047;-63
2021/12/31 05:59:11;;;;;;;4.88;2.75;;;;;;;13.58;74.01;101482.72;3590509;39;20302;-63
2021/12/31 06:01:37;;;;;;;3.70;2.45;;;;;;;13.53;74.50;101490.25;3592047;39;20054;-62
2021/12/31 06:04:03;;;;;;;5.13;2.45;;;;;;;13.49;74.26;101485.16;3589279;39;20052;-63
2021/12/31 06:06:28;;;;;;;5.07;2.42;;;;;;;13.28;74.35;101460.34;3586891;39;20067;-63
2021/12/31 06:08:54;;;;;;;5.47;2.40;;;;;;;13.38;74.61;101486.69;3591633;39;20052;-65
2021/12/31 06:11:20;;;;;;;6.93;2.70;;;;;;;13.40;74.43;101494.69;3592329;39;20141;-64
2021/12/31 06:13:49;;;;;;;4.93;2.33;;;;;;;13.38;74.86;101489.41;3591169;39;20087;-64
2021/12/31 06:16:15;;;;;;;6.60;2.95;;;;;;;13.26;75.09;101475.78;3590937;39;20071;-63
2021/12/31 06:18:41;;;;;;;3.55;2.35;;;;;;;13.19;74.98;101484.25;3592624;39;20125;-63
2021/12/31 06:21:07;;;;;;;5.00;2.65;;;;;;;13.22;75.08;101492.16;3590869;39;20410;-64
2021/12/31 06:23:33;;;;;;;7.30;2.35;;;;;;;13.25;74.73;101496.50;3596685;39;20060;-63
2021/12/31 06:25:59;;;;;;;6.78;2.45;;;;;;;13.16;75.54;101492.53;3587829;40;20088;-62
2021/12/31 06:28:24;;;;;;;5.15;2.38;;;;;;;13.16;75.19;101508.75;3591706;39;20123;-63
2021/12/31 06:30:50;;;;;;;5.40;2.60;;;;;;;13.16;75.54;101508.75;3593144;39;20058;-63
2021/12/31 06:33:15;;;;;;;5.88;2.72;;;;;;;13.08;75.69;101497.53;3589381;39;20636;-63
2021/12/31 06:35:41;;;;;;;6.85;3.08;;;;;;;13.11;75.28;101499.19;3591003;39;20051;-64
2021/12/31 06:38:07;;;;;;;8.90;2.35;;;;;;;13.10;75.29;101492.91;3587278;39;20096;-65
2021/12/31 06:40:35;;;;;;;8.05;2.92;;;;;;;13.13;75.49;101514.31;3580574;39;20148;-63
2021/12/31 06:43:00;;;;;;;6.35;2.63;;;;;;;13.04;75.26;101504.09;3595786;39;20578;-63
2021/12/31 06:45:26;;;;;;;7.13;2.60;;;;;;;13.01;75.44;101512.38;3594339;39;20054;-64
2021/12/31 06:47:52;;;;;;;4.45;2.40;;;;;;;12.90;75.58;101507.59;3596747;39;20059;-63
2021/12/31 06:50:18;;;;;;;8.65;2.53;;;;;;;12.97;75.74;101527.00;3594444;39;20539;-63
2021/12/31 06:52:45;;;;;;;6.03;2.47;;;;;;;12.92;76.05;101529.97;3591211;39;20084;-63
2021/12/31 06:55:11;;;;;;;4.22;2.25;;;;;;;12.90;75.34;101539.13;3597236;39;20136;-63
2021/12/31 06:57:36;;;;;;;3.72;2.60;;;;;;;12.76;76.03;101504.91;3598539;39;20059;-64
2021/12/31 07:00:08;;;;;;;7.93;2.75;;;;;;;12.84;76.21;101502.59;3595412;39;20056;-63
2021/12/31 07:02:34;;;;;;;5.68;2.83;;;;;;;12.64;76.13;101495.69;3596045;39;20064;-63
2021/12/31 07:04:59;;;;;;;5.38;2.70;;;;;;;12.74;76.13;101512.19;3594087;39;20058;-63
2021/12/31 07:07:25;;;;;;;7.22;3.05;;;;;;;12.69;76.57;101523.28;3593093;39;20048;-64
2021/12/31 07:09:51;;;;;;;6.72;2.60;;;;;;;12.61;76.66;101520.16;3597097;39;20055;-63
2021/12/31 07:12:17;;;;;;;5.15;2.63;;;;;;;12.66;76.70;101534.25;3597495;39;20112;-63
2021/12/31 07:14:42;;;;;;;7.40;2.60;;;;;;;12.45;76.68;101512.09;3591527;39;20356;-64
2021/12/31 07:17:10;;;;;;;7.35;2.78;;;;;;;12.59;77.14;101538.28;3587954;39;20059;-63
2021/12/31 07:19:35;;;;;;;5.32;2.90;;;;;;;12.47;76.33;101514.72;3589988;39;20304;-63
2021/12/31 07:22:01;;;;;;;4.40;2.83;;;;;;;12.48;76.81;101521.84;3590832;39;20048;-66
2021/12/31 07:24:27;;;;;;;7.60;3.28;;;;;;;12.49;76.75;101534.34;3590281;39;20117;-64
2021/12/31 07:26:52;;;;;;;4.13;2.60;;;;;;;12.28;76.64;101505.00;3590884;39;20051;-64
2021/12/31 07:29:18;;;;;;;7.03;2.95;;;;;;;12.46;76.99;101532.75;3590740;39;20449;-63
2021/12/31 07:31:44;;;;;;;6.80;3.00;;;;;;;12.38;77.17;101536.84;3582481;40;20624;-63
2021/12/31 07:34:09;;;;;;;6.60;2.72;;;;;;;12.45;77.04;101536.38;3588590;39;20408;-64
2021/12/31 07:36:35;;;;;;;4.85;2.70;;;;;;;12.20;76.91;101495.63;3591559;39;20365;-64
2021/12/31 07:39:07;;;;;;;3.28;2.30;;;;;;;12.45;76.66;101547.16;3597915;39;20055;-64
2021/12/31 07:41:34;;;;;;;3.95;2.45;;;;;;;12.46;76.63;101546.22;3595966;39;20048;-64
2021/12/31 07:44:00;;;;;;;5.50;2.58;;;;;;;12.48;76.43;101543.41;3595940;39;20046;-63
2021/12/31 07:46:26;;;;;;;5.13;2.58;;;;;;;12.26;76.40;101506.91;3593105;39;20056;-65
2021/12/31 07:48:51;;;;;;;4.05;2.70;;;;;;;12.40;76.45;101534.88;3591178;39;20582;-63
2021/12/31 07:51:18;;;;;;;5.40;3.05;;;;;;;12.47;76.21;101542.56;3591473;39;20889;-63
2021/12/31 07:53:44;;;;;;;3.10;2.63;;;;;;;12.26;76.25;101512.31;3597961;39;20052;-63
2021/12/31 07:56:09;;;;;;;6.28;2.88;;;;;;;12.41;76.11;101547.44;3593832;39;20062;-63
2021/12/31 07:58:35;;;;;;;6.55;3.00;;;;;;;12.45;76.46;101565.16;3588197;39;20102;-63
2021/12/31 08:01:01;;;;;;;4.07;2.75;;;;;;;12.37;76.27;101552.13;3588270;39;20051;-63
2021/12/31 08:03:26;;;;;;;5.35;3.00;;;;;;;12.48;75.91;101559.59;3585187;39;20052;-63
2021/12/31 08:05:52;;;;;;;3.72;2.50;;;;;;;12.46;75.98;101566.91;3589537;39;20051;-63
2021/12/31 08:08:18;;;;;;;5.53;2.30;;;;;;;12.46;76.17;101577.69;3585118;39;20174;-63
2021/12/31 08:10:43;;;;;;;4.90;2.78;;;;;;;12.48;75.88;101582.03;3591662;39;20424;-63
2021/12/31 08:13:09;;;;;;;7.82;2.90;;;;;;;12.24;76.06;101546.59;3589399;39;20052;-63
2021/12/31 08:15:35;;;;;;;3.40;2.42;;;;;;;12.43;76.01;101576.06;3587346;39;20056;-62
2021/12/31 08:18:00;;;;;;;5.15;2.40;;;;;;;12.43;75.77;101569.78;3583516;40;20052;-63
2021/12/31 08:20:26;;;;;;;8.00;2.80;;;;;;;12.43;75.76;101570.66;3589046;39;20060;-63
2021/12/31 08:22:52;;;;;;;5.50;2.92;;;;;;;12.43;75.68;101578.75;3589972;39;20182;-63
2021/12/31 08:25:18;;;;;;;14.90;10.00;;;;;;;12.39;75.82;101558.28;3584469;39;20079;-63
2021/12/31 08:27:44;;;;;;;7.72;2.85;;;;;;;12.57;75.56;101556.38;3623923;22;20035;-64
2021/12/31 08:30:11;;;;;;;3.25;2.20;;;;;;;12.62;74.87;101545.28;3562154;40;20057;-64
2021/12/31 08:32:38;;;;;;;4.00;2.28;;;;;;;12.58;74.55;101522.16;3564803;40;20131;-64
2021/12/31 08:35:06;;;;;;;4.55;2.80;;;;;;;12.72;74.41;101555.47;3563762;40;20065;-64
2021/12/31 08:37:32;;;;;;;5.65;2.35;;;;;;;12.71;74.38;101542.91;3562005;40;20159;-65
2021/12/31 08:39:58;;;;;;;4.93;2.40;;;;;;;12.74;74.17;101545.44;3553381;40;20105;-65
2021/12/31 08:42:25;;;;;;;5.30;2.22;;;;;;;12.84;73.71;101563.78;3553481;40;20054;-64
2021/12/31 08:44:52;;;;;;;2.42;2.13;;;;;;;12.90;73.37;101566.13;3554244;40;20065;-65
2021/12/31 08:47:17;;;;;;;2.97;2.00;;;;;;;12.92;73.70;101553.41;3554417;40;20049;-65
2021/12/31 08:49:43;;;;;;;4.07;2.33;;;;;;;12.94;73.42;101559.56;3556733;40;20049;-65
2021/12/31 08:52:08;;;;;;;6.50;2.45;;;;;;;12.94;73.68;101546.06;3555433;40;20056;-64
2021/12/31 08:54:35;;;;;;;3.72;2.42;;;;;;;12.96;73.59;101539.63;3556912;40;20069;-64
2021/12/31 08:57:01;;;;;;;4.25;2.13;;;;;;;12.91;73.34;101530.97;3554278;40;20061;-64
2021/12/31 08:59:27;;;;;;;5.20;2.15;;;;;;;13.00;73.22;101534.91;3555872;40;20053;-64
2021/12/31 09:01:53;;;;;;;2.65;1.98;;;;;;;12.97;73.18;101514.41;3548713;40;20131;-64
2021/12/31 09:04:18;;;;;;;3.75;2.33;;;;;;;13.05;72.78;101522.00;3554072;40;20080;-64
2021/12/31 09:06:44;;;;;;;6.18;2.13;;;;;;;13.11;72.71;101526.19;3555443;40;20169;-64
2021/12/31 09:09:09;;;;;;;4.10;2.53;;;;;;;13.11;73.12;101532.44;3558501;40;20053;-65
2021/12/31 09:11:35;;;;;;;4.88;2.63;;;;;;;13.14;72.78;101529.56;3554326;40;20069;-64
2021/12/31 09:14:01;;;;;;;3.80;2.30;;;;;;;13.11;72.87;101523.47;3555699;40;20080;-65
2021/12/31 09:16:26;;;;;;;6.78;2.53;;;;;;;13.13;72.50;101541.31;3554715;40;20065;-64
2021/12/31 09:18:52;;;;;;;7.35;2.85;;;;;;;13.15;72.37;101544.78;3556684;40;20056;-65
2021/12/31 09:21:20;;;;;;;6.05;2.40;;;;;;;13.18;72.59;101544.59;3558106;40;20053;-64
2021/12/31 09:23:47;;;;;;;3.63;2.10;;;;;;;13.18;72.42;101543.72;3559280;40;20053;-65
2021/12/31 09:26:14;;;;;;;3.88;2.35;;;;;;;13.19;72.04;101540.06;3554557;40;20368;-64
2021/12/31 09:28:39;;;;;;;4.70;2.40;;;;;;;13.27;72.04;101551.28;3554856;40;20107;-64
2021/12/31 09:31:07;;;;;;;3.17;2.10;;;;;;;13.29;72.19;101551.19;3554290;40;20122;-65
2021/12/31 09:33:33;;;;;;;2.67;1.90;;;;;;;13.38;71.41;101556.03;3555703;40;20311;-64
2021/12/31 09:35:59;;;;;;;4.43;2.22;;;;;;;13.33;71.38;101552.75;3557091;40;20117;-64
2021/12/31 09:38:24;;;;;;;2.95;2.00;;;;;;;13.21;71.67;101549.81;3557559;40;20061;-64
2021/12/31 09:40:50;;;;;;;3.90;2.20;;;;;;;13.38;71.38;101580.31;3557451;40;20053;-64
2021/12/31 09:43:16;;;;;;;4.57;2.15;;;;;;;13.38;71.44;101566.81;3556283;40;20077;-64
2021/12/31 09:45:45;;;;;;;3.75;2.13;;;;;;;13.38;71.41;101593.81;3554313;40;20057;-65
2021/12/31 09:48:14;;;;;;;3.70;2.15;;;;;;;13.38;71.44;101580.31;3557003;40;20168;-65
2021/12/31 09:50:46;;;;;;;4.68;2.00;;;;;;;13.38;71.72;101588.44;3556479;40;20155;-65
2021/12/31 09:53:14;;;;;;;5.07;2.20;;;;;;;13.38;71.26;101581.22;3554429;40;20056;-64
2021/12/31 09:55:47;;;;;;;3.78;2.08;;;;;;;13.38;71.59;101592.03;3544736;40;20348;-64
2021/12/31 09:58:17;;;;;;;3.47;1.90;;;;;;;13.15;71.17;101550.19;3555808;40;20288;-64
2021/12/31 10:00:50;;;;;;;4.82;2.05;;;;;;;13.38;71.21;101588.44;3555549;40;20262;-64
2021/12/31 10:03:25;;;;;;;3.40;1.92;;;;;;;13.44;71.48;101580.81;3554849;40;20072;-64
2021/12/31 10:06:07;;;;;;;3.80;2.03;;;;;;;13.45;70.65;101574.47;3554413;40;20159;-64
2021/12/31 10:08:44;;;;;;;4.40;2.28;;;;;;;13.47;70.98;101579.75;3555372;40;20062;-64
2021/12/31 10:11:24;;;;;;;3.25;2.20;;;;;;;13.28;70.54;101552.16;3554748;40;20428;-64
2021/12/31 10:14:02;;;;;;;4.60;2.00;;;;;;;13.51;70.98;101588.53;3556875;40;20053;-65
2021/12/31 10:16:35;;;;;;;3.88;1.92;;;;;;;13.46;71.41;101565.41;3557601;40;20060;-65
2021/12/31 10:19:11;;;;;;;6.50;2.30;;;;;;;13.47;71.27;101550.06;3555262;40;20045;-65
2021/12/31 10:21:46;;;;;;;6.55;2.92;;;;;;;13.48;70.98;101562.63;3554501;40;20132;-65
2021/12/31 10:24:38;;;;;;;4.18;2.47;;;;;;;13.46;70.93;101581.59;3556210;40;20102;-65
2021/12/31 10:27:10;;;;;;;3.70;2.42;;;;;;;13.50;71.42;101574.16;3555312;40;20089;-64
2021/12/31 10:30:07;;;;;;;5.70;2.60;;;;;;;13.44;71.41;101551.09;3555328;40;20170;-65
2021/12/31 10:32:40;;;;;;;7.40;2.25;;;;;;;13.53;71.20;101559.63;3555579;40;20651;-64
2021/12/31 10:35:21;;;;;;;4.25;2.17;;;;;;;13.49;71.50;101563.47;3555139;40;20049;-64
2021/12/31 10:37:57;;;;;;;4.68;2.20;;;;;;;13.49;71.40;101553.53;3553615;40;20089;-64
2021/12/31 10:40:49;;;;;;;10.68;2.75;;;;;;;13.56;70.81;101562.97;3554300;40;20395;-64
2021/12/31 10:43:21;;;;;;;4.68;2.55;;;;;;;13.57;71.03;101569.25;3552756;40;20054;-64
2021/12/31 10:46:16;;;;;;;5.75;2.70;;;;;;;13.60;70.76;101567.22;3556659;40;20128;-64
2021/12/31 10:48:50;;;;;;;4.07;2.67;;;;;;;13.65;70.69;101585.88;3555015;40;20157;-65
2021/12/31 10:51:34;;;;;;;5.32;2.72;;;;;;;13.69;70.98;101590.97;3554216;40;20068;-65
2021/12/31 10:54:46;;;;;;;3.30;2.63;;;;;;;13.89;70.39;101575.31;3556170;40;20123;-65
2021/12/31 10:57:11;;;;;;;4.68;2.60;;;;;;;13.98;69.88;101592.78;3555755;40;20060;-64
2021/12/31 10:59:37;;;;;;;4.10;2.40;;;;;;;14.01;69.96;101581.78;3559782;40;20061;-65
2021/12/31 11:02:06;;;;;;;4.38;2.75;;;;;;;14.08;69.47;101577.72;3556300;40;20419;-65
2021/12/31 11:04:34;;;;;;;4.95;2.53;;;;;;;14.15;69.61;101579.94;3556129;40;20069;-65
2021/12/31 11:07:01;;;;;;;3.90;2.40;;;;;;;14.14;69.27;101580.91;3554566;40;20073;-65
2021/12/31 11:09:31;;;;;;;6.00;2.47;;;;;;;14.09;69.71;101572.22;3553075;40;20061;-64
2021/12/31 11:12:00;;;;;;;8.32;2.80;;;;;;;14.00;69.48;101564.69;3555980;40;20060;-65
2021/12/31 11:14:27;;;;;;;4.72;2.55;;;;;;;14.02;69.88;101565.47;3557780;40;20059;-65
2021/12/31 11:16:52;;;;;;;3.38;2.60;;;;;;;13.97;69.69;101554.09;3554838;40;20366;-65
2021/12/31 11:19:18;;;;;;;4.32;2.42;;;;;;;13.97;69.60;101558.63;3555937;40;20046;-65
2021/12/31 11:21:49;;;;;;;5.15;2.58;;;;;;;13.99;69.82;101544.06;3554161;40;20077;-65
2021/12/31 11:24:37;;;;;;;3.75;2.20;;;;;;;13.98;69.62;101538.72;3556190;40;20053;-65
2021/12/31 11:27:32;;;;;;;7.75;2.90;;;;;;;13.98;69.89;101544.13;3557739;40;20045;-65
2021/12/31 11:29:59;;;;;;;5.65;2.40;;;;;;;13.98;69.80;101547.69;3552575;40;20041;-65
2021/12/31 11:32:57;;;;;;;5.45;2.60;;;;;;;13.97;70.30;101520.78;3557131;40;20049;-65